Fremont, NE

5:48 AM CDT on May 28, 2018 (GMT -0500)
Fremont Municipal

Weather History for KFET - October, 2013

Change the Weather History Date:

Thursday, October 10, 2013

  Actual Average Record
Temperature  
Mean Temperature 70 °F -  
Max Temperature 81 °F 67 °F 88 °F (1953)
Min Temperature 58 °F 39 °F 25 °F (2012)
Cooling Degree Days 4    
Growing Degree Days 20 (Base 50)    
Moisture  
Dew Point 54 °F    
Average Humidity 61    
Maximum Humidity 81    
Minimum Humidity 41    
Precipitation  
Precipitation 0.00 in - - ()
Sea Level Pressure  
Sea Level Pressure 29.89 in    
Wind  
Wind Speed 10 mph (SE)    
Max Wind Speed 22 mph    
Max Gust Speed 29 mph    
Visibility 10 miles    
Events      
Averages and records for this station are not official NWS values.
T = Trace of Precipitation, MM = Missing Value Source: NWS Daily Summary

Daily Weather History Graph

Daily Weather History Graph

Search for Another Location

Airport or City:

Astronomy

Oct. 10, 2013 Rise Set
Actual Time 7:32 AM CDT 6:52 PM CDT
Civil Twilight 7:05 AM CDT 7:20 PM CDT
Nautical Twilight 6:32 AM CDT 7:52 PM CDT
Astronomical Twilight 6:00 AM CDT 8:24 PM CDT
Moon 1:28 PM CDT (10/10) 11:29 PM CDT (10/10)
Length of Visible Light 12h 15m
Length of Day
11h 19m
Waxing Crescent, 36% of the Moon is Illuminated
Oct 10
Waxing Crescent
Oct 11
First Quarter
Oct 18
Full
Oct 26
Last Quarter
Nov 3
New

Hourly Weather History & Observations

Time (CDT) Temp. Heat Index Dew Point Humidity Pressure Visibility Wind Dir Wind Speed Gust Speed Precip Events Conditions
12:15 AM 61.9 °F - 49.6 °F 64% 29.98 in 10.0 mi SE 5.8 mph - N/A   Clear
12:35 AM 61.0 °F - 49.6 °F 66% 29.98 in 10.0 mi SE 6.9 mph - N/A   Clear
12:55 AM 60.8 °F - 49.5 °F 66% 29.98 in 10.0 mi SE 3.5 mph - N/A   Clear
1:15 AM 60.1 °F - 49.6 °F 68% 29.99 in 10.0 mi SE 5.8 mph - N/A   Clear
1:35 AM 60.1 °F - 49.8 °F 69% 29.98 in 10.0 mi SE 5.8 mph - N/A   Clear
1:55 AM 60.1 °F - 50.0 °F 69% 29.98 in 10.0 mi SE 5.8 mph - N/A   Clear
2:15 AM 59.9 °F - 50.4 °F 71% 29.99 in 10.0 mi SE 6.9 mph - N/A   Clear
2:35 AM 59.9 °F - 50.7 °F 72% 29.99 in 10.0 mi SE 6.9 mph - N/A   Clear
2:55 AM 59.9 °F - 50.9 °F 72% 29.99 in 10.0 mi SE 6.9 mph - N/A   Clear
3:15 AM 59.5 °F - 51.3 °F 74% 29.98 in 10.0 mi SE 5.8 mph - N/A   Clear
3:35 AM 59.0 °F - 51.3 °F 75% 29.99 in 10.0 mi SE 4.6 mph - N/A   Clear
3:55 AM 58.6 °F - 51.3 °F 76% 29.98 in 10.0 mi SE 8.1 mph - N/A   Clear
4:15 AM 59.0 °F - 51.1 °F 75% 29.98 in 10.0 mi SE 8.1 mph - N/A   Clear
4:35 AM 58.6 °F - 51.3 °F 76% 29.98 in 10.0 mi SE 9.2 mph - N/A   Clear
4:55 AM 58.5 °F - 51.1 °F 76% 29.97 in 10.0 mi SE 9.2 mph - N/A   Clear
5:15 AM 58.6 °F - 51.4 °F 77% 29.97 in 10.0 mi SE 9.2 mph - N/A   Clear
5:35 AM 58.3 °F - 52.0 °F 80% 29.97 in 10.0 mi SE 8.1 mph - N/A   Clear
5:55 AM 59.0 °F - 52.3 °F 79% 29.96 in 10.0 mi SE 8.1 mph - N/A   Clear
6:15 AM 59.2 °F - 52.7 °F 79% 29.97 in 10.0 mi SE 9.2 mph - N/A   Clear
6:35 AM 59.4 °F - 52.7 °F 79% 29.96 in 10.0 mi SE 9.2 mph - N/A   Clear
6:55 AM 59.4 °F - 52.9 °F 79% 29.96 in 10.0 mi SE 10.4 mph - N/A   Clear
7:15 AM 59.0 °F - 52.7 °F 80% 29.96 in 10.0 mi SE 9.2 mph - N/A   Clear
7:35 AM 58.6 °F - 52.7 °F 81% 29.96 in 10.0 mi SE 10.4 mph - N/A   Clear
7:55 AM 58.5 °F - 52.7 °F 81% 29.96 in 10.0 mi SE 11.5 mph 18.4 mph N/A   Clear
8:15 AM 59.0 °F - 52.7 °F 80% 29.96 in 10.0 mi SE 10.4 mph - N/A   Clear
8:35 AM 59.0 °F - 52.3 °F 79% 29.96 in 10.0 mi SE 11.5 mph - N/A   Clear
8:55 AM 60.6 °F - 52.7 °F 75% 29.96 in 10.0 mi SE 12.7 mph - N/A   Clear
9:15 AM 62.1 °F - 52.9 °F 72% 29.96 in 10.0 mi SE 15.0 mph 20.7 mph N/A   Clear
9:35 AM 63.3 °F - 53.1 °F 69% 29.96 in 10.0 mi SSE 12.7 mph 19.6 mph N/A   Clear
9:55 AM 65.3 °F - 53.6 °F 66% 29.96 in 10.0 mi SSE 15.0 mph 19.6 mph N/A   Clear
10:15 AM 67.1 °F - 54.1 °F 63% 29.95 in 10.0 mi SSE 11.5 mph 17.3 mph N/A   Clear
10:35 AM 68.5 °F - 54.1 °F 60% 29.94 in 10.0 mi SSE 18.4 mph 23.0 mph N/A   Clear
10:55 AM 70.0 °F - 54.3 °F 57% 29.93 in 10.0 mi SSE 16.1 mph 21.9 mph N/A   Clear
11:15 AM 72.0 °F - 54.7 °F 54% 29.93 in 10.0 mi SSE 12.7 mph 23.0 mph N/A   Clear
11:35 AM 72.9 °F - 54.7 °F 53% 29.92 in 10.0 mi SSE 17.3 mph 24.2 mph N/A   Clear
11:55 AM 74.1 °F - 55.6 °F 52% 29.92 in 10.0 mi SSE 15.0 mph 19.6 mph N/A   Clear
12:15 PM 75.7 °F - 55.9 °F 50% 29.91 in 10.0 mi SSE 12.7 mph - N/A   Clear
12:35 PM 76.8 °F - 55.9 °F 48% 29.91 in 10.0 mi SSE 17.3 mph - N/A   Clear
12:55 PM 78.3 °F - 56.1 °F 46% 29.90 in 10.0 mi SSE 12.7 mph 21.9 mph N/A   Clear
1:15 PM 78.6 °F - 56.1 °F 46% 29.89 in 10.0 mi SE 15.0 mph 25.3 mph N/A   Clear
1:35 PM 79.0 °F - 55.4 °F 44% 29.87 in 10.0 mi SSE 20.7 mph 28.8 mph N/A   Clear
1:55 PM 79.5 °F - 55.6 °F 44% 29.86 in 10.0 mi SE 18.4 mph 25.3 mph N/A   Clear
2:15 PM 79.9 °F - 55.2 °F 43% 29.85 in 10.0 mi SE 18.4 mph 27.6 mph N/A   Clear
2:35 PM 80.6 °F 80.5 °F 55.8 °F 42% 29.85 in 10.0 mi SSE 13.8 mph 24.2 mph N/A   Clear
2:55 PM 80.6 °F 80.4 °F 54.9 °F 41% 29.84 in 10.0 mi SE 18.4 mph 27.6 mph N/A   Clear
3:15 PM 80.1 °F 80.2 °F 55.4 °F 43% 29.84 in 10.0 mi SSE 13.8 mph 27.6 mph N/A   Clear
3:35 PM 81.0 °F 80.7 °F 54.9 °F 41% 29.83 in 10.0 mi SE 21.9 mph 28.8 mph N/A   Clear
3:55 PM 80.1 °F 80.1 °F 55.0 °F 42% 29.83 in 10.0 mi SE 19.6 mph 26.5 mph N/A   Clear
4:15 PM 80.6 °F 80.5 °F 55.2 °F 42% 29.82 in 10.0 mi SE 17.3 mph 28.8 mph N/A   Clear
4:35 PM 81.5 °F 81.3 °F 56.3 °F 42% 29.82 in 10.0 mi SE 17.3 mph 27.6 mph N/A   Clear
4:55 PM 80.8 °F 80.7 °F 55.9 °F 42% 29.82 in 10.0 mi SSE 13.8 mph 27.6 mph N/A   Clear
5:15 PM 79.9 °F - 55.9 °F 44% 29.82 in 10.0 mi SSE 17.3 mph 25.3 mph N/A   Clear
5:35 PM 79.5 °F - 56.5 °F 45% 29.81 in 10.0 mi SE 13.8 mph 20.7 mph N/A   Clear
5:55 PM 78.8 °F - 56.3 °F 46% 29.81 in 10.0 mi SE 18.4 mph 27.6 mph N/A   Clear
6:15 PM 77.5 °F - 56.3 °F 48% 29.81 in 10.0 mi SE 15.0 mph 24.2 mph N/A   Clear
6:35 PM 76.5 °F - 56.3 °F 50% 29.81 in 10.0 mi SE 12.7 mph 18.4 mph N/A   Clear
6:55 PM 75.0 °F - 56.5 °F 52% 29.81 in 10.0 mi SE 12.7 mph 20.7 mph N/A   Clear
7:15 PM 73.9 °F - 56.7 °F 55% 29.81 in 10.0 mi SE 11.5 mph 17.3 mph N/A   Clear
7:35 PM 73.4 °F - 56.8 °F 56% 29.81 in 10.0 mi SE 10.4 mph 20.7 mph N/A   Clear
7:55 PM 72.7 °F - 56.7 °F 57% 29.81 in 10.0 mi SE 12.7 mph 20.7 mph N/A   Clear
8:15 PM 72.3 °F - 56.3 °F 57% 29.81 in 10.0 mi SE 16.1 mph 23.0 mph N/A   Clear
8:35 PM 71.8 °F - 55.8 °F 57% 29.81 in 10.0 mi SE 15.0 mph 21.9 mph N/A   Clear
8:55 PM 71.4 °F - 55.4 °F 57% 29.81 in 10.0 mi SE 13.8 mph 23.0 mph N/A   Clear
9:15 PM 70.0 °F - 55.8 °F 61% 29.80 in 10.0 mi SE 12.7 mph - N/A   Clear
9:35 PM 69.1 °F - 55.8 °F 62% 29.79 in 10.0 mi SE 16.1 mph 20.7 mph N/A   Clear
9:55 PM 68.9 °F - 55.9 °F 63% 29.79 in 10.0 mi SE 11.5 mph 20.7 mph N/A   Clear
10:15 PM 68.4 °F - 55.8 °F 64% 29.78 in 10.0 mi SE 12.7 mph 19.6 mph N/A   Clear
10:35 PM 68.2 °F - 55.6 °F 64% 29.78 in 10.0 mi SE 13.8 mph 20.7 mph N/A   Clear
10:55 PM 68.0 °F - 55.4 °F 64% 29.78 in 10.0 mi SE 15.0 mph 20.7 mph N/A   Clear
11:15 PM 67.5 °F - 55.0 °F 64% 29.78 in 10.0 mi SE 12.7 mph 21.9 mph N/A   Clear
11:35 PM 67.3 °F - 55.0 °F 65% 29.78 in 10.0 mi SE 15.0 mph 23.0 mph N/A   Clear
11:55 PM 66.9 °F - 55.0 °F 66% 29.77 in 10.0 mi SE 17.3 mph 23.0 mph N/A   Clear